sensor_id;sensor_type;location;lat;lon;timestamp;pressure;altitude;pressure_sealevel;temperature;humidity
52839;BME280;39219;53.678;9.856;2022-11-21T00:01:55;100294.28;;;-2.18;100.00
52839;BME280;39219;53.678;9.856;2022-11-21T00:04:22;100286.66;;;-2.10;100.00
52839;BME280;39219;53.678;9.856;2022-11-21T00:06:49;100281.41;;;-2.13;100.00
52839;BME280;39219;53.678;9.856;2022-11-21T00:09:15;100283.03;;;-2.18;100.00
52839;BME280;39219;53.678;9.856;2022-11-21T00:11:42;100285.63;;;-2.18;100.00
52839;BME280;39219;53.678;9.856;2022-11-21T00:14:08;100283.81;;;-2.21;100.00
52839;BME280;39219;53.678;9.856;2022-11-21T00:16:36;100278.81;;;-2.13;100.00
52839;BME280;39219;53.678;9.856;2022-11-21T00:19:03;100284.09;;;-2.09;100.00
52839;BME280;39219;53.678;9.856;2022-11-21T00:21:29;100278.94;;;-2.07;100.00
52839;BME280;39219;53.678;9.856;2022-11-21T00:23:55;100291.88;;;-2.09;100.00
52839;BME280;39219;53.678;9.856;2022-11-21T00:26:22;100287.50;;;-2.11;100.00
52839;BME280;39219;53.678;9.856;2022-11-21T00:28:48;100281.41;;;-2.13;100.00
52839;BME280;39219;53.678;9.856;2022-11-21T00:31:18;100280.56;;;-2.11;100.00
52839;BME280;39219;53.678;9.856;2022-11-21T00:33:47;100284.09;;;-2.09;100.00
52839;BME280;39219;53.678;9.856;2022-11-21T00:36:13;100283.09;;;-2.14;100.00
52839;BME280;39219;53.678;9.856;2022-11-21T00:38:39;100277.47;;;-2.35;100.00
52839;BME280;39219;53.678;9.856;2022-11-21T00:41:06;100279.59;;;-2.57;100.00
52839;BME280;39219;53.678;9.856;2022-11-21T00:43:33;100272.50;;;-2.63;100.00
52839;BME280;39219;53.678;9.856;2022-11-21T00:45:59;100269.41;;;-2.48;100.00
52839;BME280;39219;53.678;9.856;2022-11-21T00:48:27;100266.59;;;-2.57;100.00
52839;BME280;39219;53.678;9.856;2022-11-21T00:50:55;100264.69;;;-2.66;100.00
52839;BME280;39219;53.678;9.856;2022-11-21T00:53:21;100263.69;;;-2.71;100.00
52839;BME280;39219;53.678;9.856;2022-11-21T00:55:47;100265.25;;;-2.78;100.00
52839;BME280;39219;53.678;9.856;2022-11-21T00:58:14;100261.88;;;-2.75;100.00
52839;BME280;39219;53.678;9.856;2022-11-21T01:00:40;100265.22;;;-2.79;100.00
52839;BME280;39219;53.678;9.856;2022-11-21T01:03:07;100258.00;;;-2.91;100.00
52839;BME280;39219;53.678;9.856;2022-11-21T01:05:33;100263.22;;;-2.91;100.00
52839;BME280;39219;53.678;9.856;2022-11-21T01:08:01;100265.56;;;-2.64;100.00
52839;BME280;39219;53.678;9.856;2022-11-21T01:10:28;100263.09;;;-2.58;100.00
52839;BME280;39219;53.678;9.856;2022-11-21T01:12:54;100271.88;;;-2.53;100.00
52839;BME280;39219;53.678;9.856;2022-11-21T01:15:20;100266.44;;;-2.63;100.00
52839;BME280;39219;53.678;9.856;2022-11-21T01:17:47;100264.63;;;-2.68;100.00
52839;BME280;39219;53.678;9.856;2022-11-21T01:20:13;100269.06;;;-2.62;100.00
52839;BME280;39219;53.678;9.856;2022-11-21T01:22:40;100267.22;;;-2.69;100.00
52839;BME280;39219;53.678;9.856;2022-11-21T01:25:08;100265.53;;;-2.67;100.00
52839;BME280;39219;53.678;9.856;2022-11-21T01:27:35;100258.44;;;-2.73;100.00
52839;BME280;39219;53.678;9.856;2022-11-21T01:30:01;100260.44;;;-2.61;100.00
52839;BME280;39219;53.678;9.856;2022-11-21T01:32:28;100267.44;;;-2.57;100.00
52839;BME280;39219;53.678;9.856;2022-11-21T01:34:54;100264.94;;;-2.54;100.00
52839;BME280;39219;53.678;9.856;2022-11-21T01:37:21;100268.31;;;-2.58;100.00
52839;BME280;39219;53.678;9.856;2022-11-21T01:39:47;100262.22;;;-2.58;100.00
52839;BME280;39219;53.678;9.856;2022-11-21T01:42:15;100257.97;;;-2.55;100.00
52839;BME280;39219;53.678;9.856;2022-11-21T01:44:47;100262.41;;;-2.50;100.00
52839;BME280;39219;53.678;9.856;2022-11-21T01:47:14;100254.66;;;-2.49;100.00
52839;BME280;39219;53.678;9.856;2022-11-21T01:49:41;100255.56;;;-2.45;100.00
52839;BME280;39219;53.678;9.856;2022-11-21T01:52:11;100263.44;;;-2.42;100.00
52839;BME280;39219;53.678;9.856;2022-11-21T01:54:42;100261.94;;;-2.32;100.00
52839;BME280;39219;53.678;9.856;2022-11-21T01:57:12;100259.28;;;-2.34;100.00
52839;BME280;39219;53.678;9.856;2022-11-21T01:59:45;100268.81;;;-2.34;100.00
52839;BME280;39219;53.678;9.856;2022-11-21T02:02:15;100267.16;;;-2.31;100.00
52839;BME280;39219;53.678;9.856;2022-11-21T02:04:43;100265.47;;;-2.27;100.00
52839;BME280;39219;53.678;9.856;2022-11-21T02:07:11;100269.81;;;-2.28;100.00
52839;BME280;39219;53.678;9.856;2022-11-21T02:09:41;100262.78;;;-2.32;100.00
52839;BME280;39219;53.678;9.856;2022-11-21T02:12:12;100269.66;;;-2.35;100.00
52839;BME280;39219;53.678;9.856;2022-11-21T02:14:42;100272.50;;;-2.25;100.00
52839;BME280;39219;53.678;9.856;2022-11-21T02:17:10;100268.78;;;-2.36;100.00
52839;BME280;39219;53.678;9.856;2022-11-21T02:19:42;100259.09;;;-2.43;100.00
52839;BME280;39219;53.678;9.856;2022-11-21T02:22:13;100260.69;;;-2.48;100.00
52839;BME280;39219;53.678;9.856;2022-11-21T02:24:45;100258.28;;;-2.41;100.00
52839;BME280;39219;53.678;9.856;2022-11-21T02:27:14;100254.06;;;-2.35;100.00
52839;BME280;39219;53.678;9.856;2022-11-21T02:29:42;100260.03;;;-2.40;100.00
52839;BME280;39219;53.678;9.856;2022-11-21T02:32:19;100257.47;;;-2.38;100.00
52839;BME280;39219;53.678;9.856;2022-11-21T02:34:46;100257.56;;;-2.33;100.00
52839;BME280;39219;53.678;9.856;2022-11-21T02:37:13;100261.94;;;-2.31;100.00
52839;BME280;39219;53.678;9.856;2022-11-21T02:39:40;100262.81;;;-2.30;100.00
52839;BME280;39219;53.678;9.856;2022-11-21T02:42:11;100260.25;;;-2.29;100.00
52839;BME280;39219;53.678;9.856;2022-11-21T02:44:45;100251.63;;;-2.28;100.00
52839;BME280;39219;53.678;9.856;2022-11-21T02:47:16;100251.22;;;-2.46;100.00
52839;BME280;39219;53.678;9.856;2022-11-21T02:49:46;100251.34;;;-2.42;100.00
52839;BME280;39219;53.678;9.856;2022-11-21T02:52:14;100242.16;;;-2.64;100.00
52839;BME280;39219;53.678;9.856;2022-11-21T02:54:40;100242.13;;;-2.67;100.00
52839;BME280;39219;53.678;9.856;2022-11-21T02:57:07;100231.59;;;-2.72;100.00
52839;BME280;39219;53.678;9.856;2022-11-21T02:59:33;100239.38;;;-2.73;100.00
52839;BME280;39219;53.678;9.856;2022-11-21T03:02:01;100238.63;;;-2.69;100.00
52839;BME280;39219;53.678;9.856;2022-11-21T03:04:28;100238.56;;;-2.71;100.00
52839;BME280;39219;53.678;9.856;2022-11-21T03:06:54;100234.28;;;-2.69;100.00
52839;BME280;39219;53.678;9.856;2022-11-21T03:09:21;100225.63;;;-2.69;100.00
52839;BME280;39219;53.678;9.856;2022-11-21T03:11:47;100223.78;;;-2.73;100.00
52839;BME280;39219;53.678;9.856;2022-11-21T03:14:14;100221.13;;;-2.76;100.00
52839;BME280;39219;53.678;9.856;2022-11-21T03:16:40;100222.13;;;-2.70;100.00
52839;BME280;39219;53.678;9.856;2022-11-21T03:19:08;100217.84;;;-2.68;100.00
52839;BME280;39219;53.678;9.856;2022-11-21T03:21:34;100210.75;;;-2.75;100.00
52839;BME280;39219;53.678;9.856;2022-11-21T03:24:01;100219.38;;;-2.77;100.00
52839;BME280;39219;53.678;9.856;2022-11-21T03:26:27;100217.59;;;-2.78;100.00
52839;BME280;39219;53.678;9.856;2022-11-21T03:28:54;100224.50;;;-2.80;100.00
52839;BME280;39219;53.678;9.856;2022-11-21T03:31:20;100225.28;;;-2.83;100.00
52839;BME280;39219;53.678;9.856;2022-11-21T03:33:46;100223.50;;;-2.86;100.00
52839;BME280;39219;53.678;9.856;2022-11-21T03:36:14;100222.59;;;-2.88;100.00
52839;BME280;39219;53.678;9.856;2022-11-21T03:38:41;100219.16;;;-2.87;100.00
52839;BME280;39219;53.678;9.856;2022-11-21T03:41:07;100225.22;;;-2.86;100.00
52839;BME280;39219;53.678;9.856;2022-11-21T03:43:53;100220.47;;;-3.06;100.00
52839;BME280;39219;53.678;9.856;2022-11-21T03:46:20;100220.31;;;-3.12;100.00
52839;BME280;39219;53.678;9.856;2022-11-21T03:48:46;100222.09;;;-3.09;100.00
52839;BME280;39219;53.678;9.856;2022-11-21T03:51:14;100222.16;;;-3.06;100.00
52839;BME280;39219;53.678;9.856;2022-11-21T03:53:40;100221.38;;;-3.02;100.00
52839;BME280;39219;53.678;9.856;2022-11-21T03:56:07;100227.44;;;-3.03;100.00
52839;BME280;39219;53.678;9.856;2022-11-21T03:58:33;100225.66;;;-3.06;100.00
52839;BME280;39219;53.678;9.856;2022-11-21T04:01:00;100228.25;;;-3.06;100.00
52839;BME280;39219;53.678;9.856;2022-11-21T04:03:26;100228.13;;;-3.10;100.00
52839;BME280;39219;53.678;9.856;2022-11-21T04:05:53;100233.91;;;-3.22;100.00
52839;BME280;39219;53.678;9.856;2022-11-21T04:08:21;100232.09;;;-3.25;100.00
52839;BME280;39219;53.678;9.856;2022-11-21T04:10:48;100240.78;;;-3.24;100.00
52839;BME280;39219;53.678;9.856;2022-11-21T04:13:15;100241.72;;;-3.22;100.00
52839;BME280;39219;53.678;9.856;2022-11-21T04:15:42;100242.47;;;-3.27;100.00
52839;BME280;39219;53.678;9.856;2022-11-21T04:18:09;100245.50;;;-3.45;100.00
52839;BME280;39219;53.678;9.856;2022-11-21T04:20:36;100246.13;;;-3.53;100.00
52839;BME280;39219;53.678;9.856;2022-11-21T04:23:02;100239.97;;;-3.57;100.00
52839;BME280;39219;53.678;9.856;2022-11-21T04:25:31;100243.25;;;-3.64;100.00
52839;BME280;39219;53.678;9.856;2022-11-21T04:27:58;100246.44;;;-3.75;100.00
52839;BME280;39219;53.678;9.856;2022-11-21T04:30:25;100236.13;;;-3.72;100.00
52839;BME280;39219;53.678;9.856;2022-11-21T04:32:52;100237.06;;;-3.69;100.00
52839;BME280;39219;53.678;9.856;2022-11-21T04:35:19;100236.22;;;-3.68;100.00
52839;BME280;39219;53.678;9.856;2022-11-21T04:37:46;100250.00;;;-3.71;100.00
52839;BME280;39219;53.678;9.856;2022-11-21T04:40:13;100249.31;;;-3.64;100.00
52839;BME280;39219;53.678;9.856;2022-11-21T04:42:41;100243.16;;;-3.67;100.00
52839;BME280;39219;53.678;9.856;2022-11-21T04:45:09;100249.03;;;-3.75;100.00
52839;BME280;39219;53.678;9.856;2022-11-21T04:47:36;100246.59;;;-3.68;100.00
52839;BME280;39219;53.678;9.856;2022-11-21T04:50:03;100253.75;;;-3.60;100.00
52839;BME280;39219;53.678;9.856;2022-11-21T04:52:29;100246.16;;;-3.52;100.00
52839;BME280;39219;53.678;9.856;2022-11-21T04:54:56;100239.78;;;-3.65;100.00
52839;BME280;39219;53.678;9.856;2022-11-21T04:57:23;100239.66;;;-3.69;100.00
52839;BME280;39219;53.678;9.856;2022-11-21T04:59:51;100241.91;;;-3.82;100.00
52839;BME280;39219;53.678;9.856;2022-11-21T05:02:17;100247.69;;;-3.92;100.00
52839;BME280;39219;53.678;9.856;2022-11-21T05:04:44;100245.00;;;-3.95;100.00
52839;BME280;39219;53.678;9.856;2022-11-21T05:07:10;100242.84;;;-3.80;100.00
52839;BME280;39219;53.678;9.856;2022-11-21T05:09:37;100241.81;;;-3.87;100.00
52839;BME280;39219;53.678;9.856;2022-11-21T05:12:04;100244.31;;;-3.90;100.00
52839;BME280;39219;53.678;9.856;2022-11-21T05:14:48;100239.81;;;-3.95;100.00
52839;BME280;39219;53.678;9.856;2022-11-21T05:17:16;100239.69;;;-4.02;100.00
52839;BME280;39219;53.678;9.856;2022-11-21T05:19:42;100242.28;;;-4.02;100.00
52839;BME280;39219;53.678;9.856;2022-11-21T05:22:09;100241.91;;;-3.82;100.00
52839;BME280;39219;53.678;9.856;2022-11-21T05:24:35;100242.16;;;-3.73;100.00
52839;BME280;39219;53.678;9.856;2022-11-21T05:27:02;100239.66;;;-3.69;100.00
52839;BME280;39219;53.678;9.856;2022-11-21T05:29:28;100246.06;;;-3.89;100.00
52839;BME280;39219;53.678;9.856;2022-11-21T05:31:55;100244.31;;;-3.90;100.00
52839;BME280;39219;53.678;9.856;2022-11-21T05:34:23;100247.56;;;-3.98;100.00
52839;BME280;39219;53.678;9.856;2022-11-21T05:36:51;100233.56;;;-4.04;100.00
52839;BME280;39219;53.678;9.856;2022-11-21T05:39:21;100236.56;;;-3.88;100.00
52839;BME280;39219;53.678;9.856;2022-11-21T05:41:47;100241.09;;;-3.81;100.00
52839;BME280;39219;53.678;9.856;2022-11-21T05:44:14;100234.22;;;-3.79;100.00
52839;BME280;39219;53.678;9.856;2022-11-21T05:46:39;100232.69;;;-3.72;100.00
52839;BME280;39219;53.678;9.856;2022-11-21T05:49:06;100236.81;;;-3.79;100.00
52839;BME280;39219;53.678;9.856;2022-11-21T05:51:34;100238.28;;;-3.89;100.00
52839;BME280;39219;53.678;9.856;2022-11-21T05:54:01;100231.47;;;-3.85;100.00
52839;BME280;39219;53.678;9.856;2022-11-21T05:56:28;100246.28;;;-3.81;100.00
52839;BME280;39219;53.678;9.856;2022-11-21T05:58:54;100250.59;;;-3.81;100.00
52839;BME280;39219;53.678;9.856;2022-11-21T06:01:21;100246.34;;;-3.78;100.00
52839;BME280;39219;53.678;9.856;2022-11-21T06:04:02;100247.94;;;-3.83;100.00
52839;BME280;39219;53.678;9.856;2022-11-21T06:06:28;100241.59;;;-3.94;100.00
52839;BME280;39219;53.678;9.856;2022-11-21T06:08:56;100243.50;;;-3.87;100.00
52839;BME280;39219;53.678;9.856;2022-11-21T06:11:22;100244.44;;;-3.85;100.00
52839;BME280;39219;53.678;9.856;2022-11-21T06:13:49;100245.41;;;-3.81;100.00
52839;BME280;39219;53.678;9.856;2022-11-21T06:16:17;100246.50;;;-3.73;100.00
52839;BME280;39219;53.678;9.856;2022-11-21T06:18:46;100248.34;;;-3.67;100.00
52839;BME280;39219;53.678;9.856;2022-11-21T06:21:14;100231.13;;;-3.64;100.00
52839;BME280;39219;53.678;9.856;2022-11-21T06:23:40;100231.94;;;-3.66;100.00
52839;BME280;39219;53.678;9.856;2022-11-21T06:26:11;100234.47;;;-3.69;100.00
52839;BME280;39219;53.678;9.856;2022-11-21T06:28:39;100226.75;;;-3.68;100.00
52839;BME280;39219;53.678;9.856;2022-11-21T06:31:07;100230.28;;;-3.63;100.00
52839;BME280;39219;53.678;9.856;2022-11-21T06:33:34;100222.41;;;-3.67;100.00
52839;BME280;39219;53.678;9.856;2022-11-21T06:36:02;100226.75;;;-3.66;100.00
52839;BME280;39219;53.678;9.856;2022-11-21T06:38:29;100225.16;;;-3.61;100.00
52839;BME280;39219;53.678;9.856;2022-11-21T06:40:55;100233.91;;;-3.58;100.00
52839;BME280;39219;53.678;9.856;2022-11-21T06:43:23;100226.09;;;-3.58;100.00
52839;BME280;39219;53.678;9.856;2022-11-21T06:45:50;100227.69;;;-3.64;100.00
52839;BME280;39219;53.678;9.856;2022-11-21T06:48:16;100227.69;;;-3.63;100.00
52839;BME280;39219;53.678;9.856;2022-11-21T06:50:43;100229.50;;;-3.60;100.00
52839;BME280;39219;53.678;9.856;2022-11-21T06:53:09;100227.75;;;-3.61;100.00
52839;BME280;39219;53.678;9.856;2022-11-21T06:55:36;100236.63;;;-3.53;100.00
52839;BME280;39219;53.678;9.856;2022-11-21T06:58:02;100228.09;;;-3.49;100.00
52839;BME280;39219;53.678;9.856;2022-11-21T07:00:30;100227.19;;;-3.49;100.00
52839;BME280;39219;53.678;9.856;2022-11-21T07:02:59;100222.84;;;-3.50;100.00
52839;BME280;39219;53.678;9.856;2022-11-21T07:05:26;100233.44;;;-3.43;100.00
52839;BME280;39219;53.678;9.856;2022-11-21T07:07:56;100233.50;;;-3.39;100.00
52839;BME280;39219;53.678;9.856;2022-11-21T07:10:23;100240.47;;;-3.38;100.00
52839;BME280;39219;53.678;9.856;2022-11-21T07:12:49;100243.06;;;-3.37;100.00
52839;BME280;39219;53.678;9.856;2022-11-21T07:15:35;100239.47;;;-3.42;100.00
52839;BME280;39219;53.678;9.856;2022-11-21T07:18:01;100243.00;;;-3.40;100.00
52839;BME280;39219;53.678;9.856;2022-11-21T07:20:27;100234.44;;;-3.36;100.00
52839;BME280;39219;53.678;9.856;2022-11-21T07:22:54;100236.94;;;-3.40;100.00
52839;BME280;39219;53.678;9.856;2022-11-21T07:25:21;100240.66;;;-3.29;100.00
52839;BME280;39219;53.678;9.856;2022-11-21T07:27:48;100241.78;;;-3.19;100.00
52839;BME280;39219;53.678;9.856;2022-11-21T07:30:15;100235.91;;;-3.12;100.00
52839;BME280;39219;53.678;9.856;2022-11-21T07:32:42;100235.81;;;-3.15;100.00
52839;BME280;39219;53.678;9.856;2022-11-21T07:35:09;100247.19;;;-3.10;100.00
52839;BME280;39219;53.678;9.856;2022-11-21T07:37:37;100236.56;;;-2.83;100.00
52839;BME280;39219;53.678;9.856;2022-11-21T07:40:05;100241.63;;;-2.49;100.00
52839;BME280;39219;53.678;9.856;2022-11-21T07:42:31;100238.25;;;-2.45;100.00
52839;BME280;39219;53.678;9.856;2022-11-21T07:44:58;100237.38;;;-2.45;100.00
52839;BME280;39219;53.678;9.856;2022-11-21T07:47:24;100238.34;;;-2.42;100.00
52839;BME280;39219;53.678;9.856;2022-11-21T07:49:52;100231.66;;;-2.29;100.00
52839;BME280;39219;53.678;9.856;2022-11-21T07:52:19;100228.72;;;-2.46;100.00
52839;BME280;39219;53.678;9.856;2022-11-21T07:54:45;100230.75;;;-2.71;100.00
52839;BME280;39219;53.678;9.856;2022-11-21T07:57:12;100223.59;;;-2.83;100.00
52839;BME280;39219;53.678;9.856;2022-11-21T07:59:38;100225.06;;;-2.92;100.00
52839;BME280;39219;53.678;9.856;2022-11-21T08:02:05;100220.91;;;-2.86;100.00
52839;BME280;39219;53.678;9.856;2022-11-21T08:04:31;100220.13;;;-2.81;100.00
52839;BME280;39219;53.678;9.856;2022-11-21T08:06:59;100223.78;;;-2.73;100.00
52839;BME280;39219;53.678;9.856;2022-11-21T08:09:27;100224.09;;;-2.16;100.00
52839;BME280;39219;53.678;9.856;2022-11-21T08:11:54;100220.44;;;-1.80;100.00
52839;BME280;39219;53.678;9.856;2022-11-21T08:14:20;100228.41;;;-1.71;100.00
52839;BME280;39219;53.678;9.856;2022-11-21T08:16:50;100230.22;;;-1.67;100.00
52839;BME280;39219;53.678;9.856;2022-11-21T08:19:17;100234.97;;;-1.44;100.00
52839;BME280;39219;53.678;9.856;2022-11-21T08:21:44;100225.63;;;-1.32;100.00
52839;BME280;39219;53.678;9.856;2022-11-21T08:24:12;100223.94;;;-1.27;100.00
52839;BME280;39219;53.678;9.856;2022-11-21T08:26:39;100228.63;;;-1.06;100.00
52839;BME280;39219;53.678;9.856;2022-11-21T08:29:05;100233.25;;;-0.88;100.00
52839;BME280;39219;53.678;9.856;2022-11-21T08:31:31;100230.59;;;-0.90;100.00
52839;BME280;39219;53.678;9.856;2022-11-21T08:33:58;100224.56;;;-0.87;100.00
52839;BME280;39219;53.678;9.856;2022-11-21T08:36:24;100225.25;;;-0.99;100.00
52839;BME280;39219;53.678;9.856;2022-11-21T08:38:51;100226.09;;;-1.01;100.00
52839;BME280;39219;53.678;9.856;2022-11-21T08:41:19;100229.34;;;-1.15;100.00
52839;BME280;39219;53.678;9.856;2022-11-21T08:44:04;100221.34;;;-1.27;100.00
52839;BME280;39219;53.678;9.856;2022-11-21T08:46:32;100223.88;;;-1.32;100.00
52839;BME280;39219;53.678;9.856;2022-11-21T08:49:01;100209.41;;;-1.14;100.00
52839;BME280;39219;53.678;9.856;2022-11-21T08:51:28;100215.53;;;-1.11;100.00
52839;BME280;39219;53.678;9.856;2022-11-21T08:53:54;100210.34;;;-1.09;100.00
52839;BME280;39219;53.678;9.856;2022-11-21T08:56:22;100214.16;;;-0.87;100.00
52839;BME280;39219;53.678;9.856;2022-11-21T08:58:49;100213.56;;;-0.67;100.00
52839;BME280;39219;53.678;9.856;2022-11-21T09:01:15;100213.56;;;-0.67;100.00
52839;BME280;39219;53.678;9.856;2022-11-21T09:03:42;100217.06;;;-0.64;100.00
52839;BME280;39219;53.678;9.856;2022-11-21T09:06:09;100208.41;;;-0.63;100.00
52839;BME280;39219;53.678;9.856;2022-11-21T09:08:36;100211.06;;;-0.58;100.00
52839;BME280;39219;53.678;9.856;2022-11-21T09:11:03;100215.66;;;-0.38;100.00
52839;BME280;39219;53.678;9.856;2022-11-21T09:13:32;100205.38;;;-0.26;100.00
52839;BME280;39219;53.678;9.856;2022-11-21T09:15:59;100202.00;;;-0.17;100.00
52839;BME280;39219;53.678;9.856;2022-11-21T09:18:43;100208.25;;;-0.04;100.00
52839;BME280;39219;53.678;9.856;2022-11-21T09:21:13;100212.00;;;0.23;100.00
52839;BME280;39219;53.678;9.856;2022-11-21T09:23:39;100221.75;;;0.41;100.00
52839;BME280;39219;53.678;9.856;2022-11-21T09:26:06;100221.00;;;0.53;100.00
52839;BME280;39219;53.678;9.856;2022-11-21T09:28:34;100218.56;;;0.74;100.00
52839;BME280;39219;53.678;9.856;2022-11-21T09:31:01;100222.97;;;0.82;100.00
52839;BME280;39219;53.678;9.856;2022-11-21T09:33:28;100215.19;;;0.86;100.00
52839;BME280;39219;53.678;9.856;2022-11-21T09:35:57;100226.75;;;1.21;100.00
52839;BME280;39219;53.678;9.856;2022-11-21T09:38:23;100222.44;;;1.31;100.00
52839;BME280;39219;53.678;9.856;2022-11-21T09:40:51;100228.63;;;1.42;100.00
52839;BME280;39219;53.678;9.856;2022-11-21T09:43:32;100224.25;;;1.41;100.00
52839;BME280;39219;53.678;9.856;2022-11-21T09:46:08;100219.00;;;1.43;100.00
52839;BME280;39219;53.678;9.856;2022-11-21T09:48:43;100218.28;;;1.72;100.00
52839;BME280;39219;53.678;9.856;2022-11-21T09:51:16;100219.19;;;1.80;100.00
52839;BME280;39219;53.678;9.856;2022-11-21T09:53:50;100218.34;;;1.84;100.00
52839;BME280;39219;53.678;9.856;2022-11-21T09:56:21;100223.50;;;1.66;100.00
52839;BME280;39219;53.678;9.856;2022-11-21T09:59:05;100225.94;;;1.35;100.00
52839;BME280;39219;53.678;9.856;2022-11-21T10:01:37;100221.53;;;1.24;100.00
52839;BME280;39219;53.678;9.856;2022-11-21T10:04:04;100224.34;;;1.57;100.00
52839;BME280;39219;53.678;9.856;2022-11-21T10:06:33;100221.75;;;1.63;100.00
52839;BME280;39219;53.678;9.856;2022-11-21T10:09:06;100219.94;;;1.50;100.00
52839;BME280;39219;53.678;9.856;2022-11-21T10:11:41;100221.75;;;1.69;100.00
52839;BME280;39219;53.678;9.856;2022-11-21T10:14:28;100210.50;;;1.89;100.00
52839;BME280;39219;53.678;9.856;2022-11-21T10:17:10;100211.31;;;1.77;100.00
52839;BME280;39219;53.678;9.856;2022-11-21T10:19:54;100204.34;;;1.81;100.00
52839;BME280;39219;53.678;9.856;2022-11-21T10:22:47;100206.97;;;1.81;100.00
52839;BME280;39219;53.678;9.856;2022-11-21T10:25:22;100210.41;;;1.64;100.00
52839;BME280;39219;53.678;9.856;2022-11-21T10:27:53;100212.16;;;1.68;100.00
52839;BME280;39219;53.678;9.856;2022-11-21T10:30:22;100208.75;;;1.94;100.00
52839;BME280;39219;53.678;9.856;2022-11-21T10:32:52;100209.66;;;2.07;99.48
52839;BME280;39219;53.678;9.856;2022-11-21T10:35:22;100211.41;;;1.96;100.00
52839;BME280;39219;53.678;9.856;2022-11-21T10:37:51;100212.25;;;1.88;100.00
52839;BME280;39219;53.678;9.856;2022-11-21T10:40:31;100199.97;;;1.72;100.00
52839;BME280;39219;53.678;9.856;2022-11-21T10:43:03;100192.88;;;1.52;100.00
52839;BME280;39219;53.678;9.856;2022-11-21T10:45:52;100192.16;;;1.86;100.00
52839;BME280;39219;53.678;9.856;2022-11-21T10:48:19;100198.31;;;2.08;100.00
52839;BME280;39219;53.678;9.856;2022-11-21T10:51:01;100200.09;;;2.15;99.37
52839;BME280;39219;53.678;9.856;2022-11-21T10:53:33;100196.59;;;2.19;99.35
52839;BME280;39219;53.678;9.856;2022-11-21T10:56:18;100196.59;;;2.13;99.26
52839;BME280;39219;53.678;9.856;2022-11-21T10:58:48;100192.25;;;2.28;98.88
52839;BME280;39219;53.678;9.856;2022-11-21T11:01:24;100192.28;;;2.37;97.99
52839;BME280;39219;53.678;9.856;2022-11-21T11:04:06;100188.78;;;2.57;97.71
52839;BME280;39219;53.678;9.856;2022-11-21T11:06:33;100194.91;;;2.56;97.39
52839;BME280;39219;53.678;9.856;2022-11-21T11:09:00;100186.16;;;2.71;97.40
52839;BME280;39219;53.678;9.856;2022-11-21T11:11:26;100190.50;;;3.04;94.08
52839;BME280;39219;53.678;9.856;2022-11-21T11:13:57;100187.81;;;3.37;95.59
52839;BME280;39219;53.678;9.856;2022-11-21T11:16:25;100185.13;;;3.55;93.48
52839;BME280;39219;53.678;9.856;2022-11-21T11:18:56;100191.25;;;3.47;92.37
52839;BME280;39219;53.678;9.856;2022-11-21T11:21:25;100183.41;;;3.34;92.49
52839;BME280;39219;53.678;9.856;2022-11-21T11:23:53;100177.22;;;3.62;92.85
52839;BME280;39219;53.678;9.856;2022-11-21T11:26:24;100174.34;;;4.10;91.11
52839;BME280;39219;53.678;9.856;2022-11-21T11:28:52;100170.00;;;4.04;86.71
52839;BME280;39219;53.678;9.856;2022-11-21T11:31:20;100161.13;;;4.22;87.90
52839;BME280;39219;53.678;9.856;2022-11-21T11:33:52;100163.78;;;4.19;87.25
52839;BME280;39219;53.678;9.856;2022-11-21T11:36:33;100166.44;;;4.13;87.86
52839;BME280;39219;53.678;9.856;2022-11-21T11:39:09;100174.41;;;3.99;86.42
52839;BME280;39219;53.678;9.856;2022-11-21T11:41:52;100164.03;;;3.68;88.83
52839;BME280;39219;53.678;9.856;2022-11-21T11:44:49;100164.16;;;3.46;89.43
52839;BME280;39219;53.678;9.856;2022-11-21T11:47:43;100166.81;;;3.37;89.28
52839;BME280;39219;53.678;9.856;2022-11-21T11:50:17;100166.81;;;3.37;89.30
52839;BME280;39219;53.678;9.856;2022-11-21T11:52:52;100162.41;;;3.44;89.85
52839;BME280;39219;53.678;9.856;2022-11-21T11:55:25;100159.66;;;3.67;91.79
52839;BME280;39219;53.678;9.856;2022-11-21T11:57:55;100157.94;;;3.64;90.31
52839;BME280;39219;53.678;9.856;2022-11-21T12:00:31;100164.16;;;3.41;89.24
52839;BME280;39219;53.678;9.856;2022-11-21T12:03:04;100154.44;;;3.65;93.38
52839;BME280;39219;53.678;9.856;2022-11-21T12:05:36;100148.25;;;3.82;89.00
52839;BME280;39219;53.678;9.856;2022-11-21T12:08:21;100133.34;;;3.87;90.70
52839;BME280;39219;53.678;9.856;2022-11-21T12:10:54;100134.25;;;3.72;88.72
52839;BME280;39219;53.678;9.856;2022-11-21T12:13:40;100123.78;;;3.74;88.35
52839;BME280;39219;53.678;9.856;2022-11-21T12:16:09;100115.78;;;3.91;88.66
52839;BME280;39219;53.678;9.856;2022-11-21T12:18:45;100110.44;;;4.02;86.71
52839;BME280;39219;53.678;9.856;2022-11-21T12:21:14;100100.94;;;3.88;87.27
52839;BME280;39219;53.678;9.856;2022-11-21T12:23:45;100110.56;;;3.84;87.50
52839;BME280;39219;53.678;9.856;2022-11-21T12:26:20;100108.03;;;3.69;87.45
52839;BME280;39219;53.678;9.856;2022-11-21T12:29:00;100106.25;;;3.76;87.65
52839;BME280;39219;53.678;9.856;2022-11-21T12:31:35;100098.31;;;3.80;89.72
52839;BME280;39219;53.678;9.856;2022-11-21T12:34:18;100086.16;;;3.67;88.68
52839;BME280;39219;53.678;9.856;2022-11-21T12:36:53;100091.47;;;3.53;85.86
52839;BME280;39219;53.678;9.856;2022-11-21T12:39:39;100082.63;;;3.73;88.29
52839;BME280;39219;53.678;9.856;2022-11-21T12:42:13;100078.31;;;3.64;85.85
52839;BME280;39219;53.678;9.856;2022-11-21T12:45:22;100075.69;;;3.59;87.53
52839;BME280;39219;53.678;9.856;2022-11-21T12:54:34;100068.84;;;3.32;88.68
52839;BME280;39219;53.678;9.856;2022-11-21T12:57:08;100066.28;;;3.18;87.81
52839;BME280;39219;53.678;9.856;2022-11-21T12:59:43;100060.19;;;3.08;88.86
52839;BME280;39219;53.678;9.856;2022-11-21T13:02:21;100054.94;;;3.13;89.60
52839;BME280;39219;53.678;9.856;2022-11-21T13:04:52;100062.03;;;2.90;89.64